Time;durP1;ratioP1;P1;durP2;ratioP2;P2;SDS_P1;SDS_P2;PMS_P1;PMS_P2;Temp;Humidity;BMP_temperature;BMP_pressure;BME280_temperature;BME280_humidity;BME280_pressure;Samples;Min_cycle;Max_cycle;Signal;HPM_P1;HPM_P2
2023/01/28 00:01:29;;;;;;;8.63;7.25;;;3.30;99.90;;;;;;5050441;28;20055;-66
2023/01/28 00:03:54;;;;;;;11.82;7.43;;;3.40;99.90;;;;;;5050870;28;20119;-66
2023/01/28 00:06:20;;;;;;;10.10;7.18;;;3.40;99.90;;;;;;5051793;28;20428;-66
2023/01/28 00:08:45;;;;;;;11.57;8.05;;;3.40;99.90;;;;;;5051432;28;20041;-66
2023/01/28 00:11:12;;;;;;;10.52;8.02;;;3.40;99.90;;;;;;5052730;28;20037;-66
2023/01/28 00:13:38;;;;;;;10.13;8.40;;;3.40;99.90;;;;;;5051267;28;20447;-66
2023/01/28 00:16:09;;;;;;;11.10;8.38;;;3.40;99.90;;;;;;5067947;28;20040;-66
2023/01/28 00:18:35;;;;;;;10.25;8.55;;;3.30;99.90;;;;;;5072972;28;20048;-67
2023/01/28 00:21:08;;;;;;;9.45;7.90;;;3.40;99.90;;;;;;5072409;28;20037;-67
2023/01/28 00:23:36;;;;;;;12.45;9.40;;;3.40;99.90;;;;;;5071185;28;20477;-66
2023/01/28 00:26:05;;;;;;;11.73;9.10;;;3.30;99.90;;;;;;5070798;28;20381;-66
2023/01/28 00:28:31;;;;;;;11.30;8.85;;;3.30;99.90;;;;;;5070772;28;20111;-66
2023/01/28 00:30:57;;;;;;;9.77;7.78;;;3.30;99.90;;;;;;5071276;28;20151;-66
2023/01/28 00:33:23;;;;;;;12.57;8.48;;;3.30;99.90;;;;;;5071445;28;20051;-66
2023/01/28 00:36:09;;;;;;;9.13;7.82;;;3.30;99.90;;;;;;5070542;28;20033;-66
2023/01/28 00:38:35;;;;;;;11.23;8.38;;;3.30;99.90;;;;;;5070919;28;20045;-66
2023/01/28 00:41:14;;;;;;;9.43;8.30;;;3.30;99.90;;;;;;5071098;28;20565;-66
2023/01/28 00:43:41;;;;;;;11.52;9.15;;;3.30;99.90;;;;;;5070766;28;20040;-66
2023/01/28 00:46:08;;;;;;;11.00;9.20;;;3.30;99.90;;;;;;5070727;28;20076;-66
2023/01/28 00:48:35;;;;;;;10.52;8.55;;;3.30;99.90;;;;;;5071158;28;20041;-66
2023/01/28 00:51:01;;;;;;;10.38;8.73;;;3.30;99.90;;;;;;5071063;28;20064;-66
2023/01/28 00:53:27;;;;;;;9.65;8.10;;;3.20;99.90;;;;;;5070971;28;20047;-66
2023/01/28 00:55:53;;;;;;;9.43;8.23;;;3.20;99.90;;;;;;5070430;28;20036;-66
2023/01/28 00:58:18;;;;;;;11.05;8.52;;;3.20;99.90;;;;;;5070959;28;20467;-66
2023/01/28 01:00:44;;;;;;;8.75;7.32;;;3.10;99.90;;;;;;5069588;28;20119;-66
2023/01/28 01:03:13;;;;;;;8.60;7.38;;;3.10;99.90;;;;;;5071041;28;20555;-66
2023/01/28 01:05:38;;;;;;;9.13;8.05;;;3.10;99.90;;;;;;5070264;28;20048;-66
2023/01/28 01:08:04;;;;;;;9.07;7.57;;;3.10;99.90;;;;;;5064870;28;20503;-66
2023/01/28 01:10:29;;;;;;;9.75;8.23;;;3.10;99.90;;;;;;5055929;28;20069;-65
2023/01/28 01:12:56;;;;;;;9.05;7.18;;;3.10;99.90;;;;;;5055081;28;20091;-66
2023/01/28 01:15:22;;;;;;;9.32;7.82;;;3.10;99.90;;;;;;5052695;28;20052;-66
2023/01/28 01:17:49;;;;;;;8.77;7.70;;;3.00;99.90;;;;;;5053380;28;20060;-66
2023/01/28 01:20:20;;;;;;;9.80;7.78;;;3.00;99.90;;;;;;5036638;28;20036;-66
2023/01/28 01:22:46;;;;;;;9.48;7.18;;;3.10;99.90;;;;;;5067568;28;20036;-66
2023/01/28 01:25:14;;;;;;;10.02;7.43;;;2.90;99.90;;;;;;5074101;28;20047;-66
2023/01/28 01:27:40;;;;;;;9.27;8.13;;;3.00;99.90;;;;;;5074666;28;20044;-66
2023/01/28 01:30:07;;;;;;;8.88;7.70;;;3.00;99.90;;;;;;5074460;28;20051;-66
2023/01/28 01:32:33;;;;;;;10.07;8.63;;;3.00;99.90;;;;;;5074327;28;20040;-66
2023/01/28 01:34:59;;;;;;;9.98;7.88;;;3.00;99.90;;;;;;5073966;28;20137;-66
2023/01/28 01:37:25;;;;;;;9.05;7.80;;;3.00;99.90;;;;;;5074287;28;20054;-66
2023/01/28 01:39:51;;;;;;;10.10;7.30;;;2.90;99.90;;;;;;5074509;28;20040;-66
2023/01/28 01:42:16;;;;;;;12.18;8.30;;;2.90;99.90;;;;;;5074337;28;20040;-66
2023/01/28 01:44:54;;;;;;;13.10;8.23;;;2.90;99.90;;;;;;5073492;28;20060;-66
2023/01/28 01:47:25;;;;;;;11.98;8.20;;;3.00;99.90;;;;;;5072905;28;20142;-66
2023/01/28 01:49:51;;;;;;;13.40;8.93;;;3.00;99.90;;;;;;5074177;28;20068;-66
2023/01/28 01:52:22;;;;;;;9.85;7.55;;;2.90;99.90;;;;;;5072727;28;20036;-66
2023/01/28 01:54:53;;;;;;;9.65;7.80;;;2.90;99.90;;;;;;5072165;28;20044;-66
2023/01/28 01:57:23;;;;;;;10.35;8.05;;;2.90;99.90;;;;;;5074318;28;20053;-66
2023/01/28 01:59:48;;;;;;;10.23;8.23;;;2.90;99.90;;;;;;5073898;28;20117;-66
2023/01/28 02:02:14;;;;;;;13.25;9.10;;;3.00;99.90;;;;;;5074139;28;20033;-66
2023/01/28 02:04:43;;;;;;;11.43;7.82;;;3.00;99.90;;;;;;5073217;28;20036;-66
2023/01/28 02:07:13;;;;;;;11.23;8.65;;;2.90;99.90;;;;;;5073939;28;20036;-66
2023/01/28 02:09:40;;;;;;;10.35;8.43;;;3.00;99.90;;;;;;5072488;28;20151;-66
2023/01/28 02:12:12;;;;;;;11.27;8.88;;;3.00;99.90;;;;;;5073591;28;20044;-66
2023/01/28 02:14:55;;;;;;;14.52;10.05;;;3.00;99.90;;;;;;5072765;28;20500;-66
2023/01/28 02:17:21;;;;;;;10.77;8.15;;;2.90;99.90;;;;;;5073595;28;20064;-66
2023/01/28 02:19:49;;;;;;;13.27;9.70;;;3.00;99.90;;;;;;5071576;28;20080;-66
2023/01/28 02:22:29;;;;;;;13.20;9.60;;;2.90;99.90;;;;;;5073013;28;20102;-66
2023/01/28 02:25:33;;;;;;;11.05;9.02;;;2.90;99.90;;;;;;5072910;28;20098;-66
2023/01/28 02:28:28;;;;;;;12.15;9.85;;;2.90;99.90;;;;;;5073389;28;20102;-66
2023/01/28 02:31:03;;;;;;;11.80;8.80;;;2.90;99.90;;;;;;5073251;28;20071;-66
2023/01/28 02:33:51;;;;;;;12.80;9.00;;;2.80;99.90;;;;;;5073551;28;20544;-66
2023/01/28 02:36:34;;;;;;;11.60;9.80;;;2.80;99.90;;;;;;5073305;28;20040;-66
2023/01/28 02:39:09;;;;;;;12.27;9.30;;;2.80;99.90;;;;;;5073191;28;20090;-66
2023/01/28 02:42:01;;;;;;;12.70;8.88;;;2.80;99.90;;;;;;5073345;28;20040;-66
2023/01/28 02:44:27;;;;;;;10.45;8.40;;;2.90;99.90;;;;;;5072623;28;20037;-66
2023/01/28 02:49:49;;;;;;;7.20;6.50;;;2.80;99.90;;;;;;5073259;28;20044;-66
2023/01/28 02:55:20;;;;;;;9.63;7.50;;;2.80;99.90;;;;;;5072475;28;20080;-66
2023/01/28 02:58:17;;;;;;;8.75;6.80;;;2.80;99.90;;;;;;5072945;28;20036;-66
2023/01/28 03:01:07;;;;;;;7.25;6.03;;;2.80;99.90;;;;;;5073072;28;20045;-66
2023/01/28 03:03:46;;;;;;;7.22;6.25;;;2.80;99.90;;;;;;5071520;28;20064;-66
2023/01/28 03:06:17;;;;;;;7.97;7.03;;;2.80;99.90;;;;;;5072689;28;20047;-66
2023/01/28 03:36:54;;;;;;;9.32;7.38;;;2.90;99.90;;;;;;5072207;28;20044;-66
2023/01/28 03:39:25;;;;;;;10.52;7.38;;;2.80;99.90;;;;;;5072062;28;20052;-66
2023/01/28 03:42:03;;;;;;;9.43;7.35;;;2.70;99.90;;;;;;5070529;28;20493;-66
2023/01/28 03:47:13;;;;;;;9.20;8.07;;;2.80;99.90;;;;;;5070403;28;20072;-66
2023/01/28 03:49:44;;;;;;;9.60;7.78;;;2.80;99.90;;;;;;5070537;28;20076;-66
2023/01/28 03:52:11;;;;;;;9.50;7.85;;;2.70;99.90;;;;;;5071946;28;20039;-66
2023/01/28 03:54:37;;;;;;;12.68;7.90;;;2.70;99.90;;;;;;5071000;28;20123;-66
2023/01/28 03:57:04;;;;;;;9.23;7.70;;;2.70;99.90;;;;;;5070222;28;20144;-66
2023/01/28 03:59:30;;;;;;;13.93;7.97;;;2.80;99.90;;;;;;5071927;28;20055;-66
2023/01/28 04:01:56;;;;;;;10.00;7.28;;;2.80;99.90;;;;;;5071819;28;20082;-66
2023/01/28 04:04:23;;;;;;;9.80;7.60;;;2.70;99.90;;;;;;5070930;28;20033;-66
2023/01/28 04:06:53;;;;;;;10.57;7.63;;;2.70;99.90;;;;;;5071598;28;20111;-66
2023/01/28 04:09:19;;;;;;;9.93;7.93;;;2.70;99.90;;;;;;5071697;28;20044;-66
2023/01/28 04:11:45;;;;;;;11.57;7.70;;;2.70;99.90;;;;;;5070070;28;20128;-66
2023/01/28 04:14:11;;;;;;;9.25;6.82;;;2.70;99.90;;;;;;5070847;28;20115;-66
2023/01/28 04:16:37;;;;;;;7.85;6.50;;;2.80;99.90;;;;;;5070049;28;20082;-66
2023/01/28 04:19:02;;;;;;;9.75;7.35;;;2.80;99.90;;;;;;5071172;28;20075;-66
2023/01/28 04:21:28;;;;;;;9.95;6.97;;;2.80;99.90;;;;;;5071657;28;20120;-66
2023/01/28 04:23:53;;;;;;;13.20;8.60;;;2.80;99.90;;;;;;5070763;28;20452;-66
2023/01/28 04:26:19;;;;;;;9.15;6.85;;;2.80;99.90;;;;;;5070911;28;20071;-66
2023/01/28 04:28:45;;;;;;;10.40;7.50;;;2.90;99.90;;;;;;5069879;28;20140;-66
2023/01/28 04:31:10;;;;;;;8.05;6.75;;;2.90;99.90;;;;;;5071153;28;20083;-66
2023/01/28 04:33:36;;;;;;;10.75;7.88;;;2.80;99.90;;;;;;5069911;28;20040;-66
2023/01/28 04:36:01;;;;;;;10.57;7.18;;;2.80;99.90;;;;;;5070282;28;20036;-66
2023/01/28 04:38:27;;;;;;;10.20;7.88;;;2.80;99.90;;;;;;5069734;28;20032;-66
2023/01/28 04:40:53;;;;;;;12.15;7.55;;;2.80;99.90;;;;;;5070866;28;20044;-66
2023/01/28 04:43:19;;;;;;;7.80;6.75;;;2.80;99.90;;;;;;5070187;28;20040;-66
2023/01/28 04:45:48;;;;;;;8.73;7.05;;;2.90;99.90;;;;;;5070358;28;20509;-66
2023/01/28 04:48:15;;;;;;;10.82;7.40;;;2.90;99.90;;;;;;5071013;28;20052;-66
2023/01/28 04:50:42;;;;;;;9.73;7.45;;;2.90;99.90;;;;;;5070947;28;20397;-66
2023/01/28 04:53:08;;;;;;;11.27;7.63;;;2.90;99.90;;;;;;5069555;28;20048;-65
2023/01/28 04:55:33;;;;;;;11.02;7.18;;;2.80;99.90;;;;;;5069051;28;20485;-66
2023/01/28 04:57:59;;;;;;;11.15;7.65;;;2.80;99.90;;;;;;5070974;28;20078;-66
2023/01/28 05:00:24;;;;;;;12.60;8.23;;;2.80;99.90;;;;;;5070833;28;20485;-66
2023/01/28 05:02:50;;;;;;;11.75;7.90;;;2.70;99.90;;;;;;5069519;28;20047;-66
2023/01/28 05:05:16;;;;;;;11.50;8.13;;;2.80;99.90;;;;;;5070121;28;20493;-66
2023/01/28 05:07:41;;;;;;;11.85;8.43;;;2.80;99.90;;;;;;5070889;28;20443;-66
2023/01/28 05:10:07;;;;;;;13.02;8.48;;;2.80;99.90;;;;;;5070626;28;20580;-66
2023/01/28 05:12:33;;;;;;;10.93;8.15;;;2.80;99.90;;;;;;5070856;28;20040;-66
2023/01/28 05:14:59;;;;;;;10.70;7.47;;;2.80;99.90;;;;;;5068786;28;20098;-66
2023/01/28 05:17:26;;;;;;;10.38;8.15;;;2.70;99.90;;;;;;5069393;28;20059;-66
2023/01/28 05:19:52;;;;;;;11.75;8.35;;;2.70;99.90;;;;;;5070763;28;20041;-66
2023/01/28 05:22:18;;;;;;;11.38;7.53;;;2.70;99.90;;;;;;5069379;28;20515;-66
2023/01/28 05:24:43;;;;;;;12.05;7.35;;;2.70;99.90;;;;;;5068284;28;20047;-66
2023/01/28 05:27:09;;;;;;;10.45;7.68;;;2.70;99.90;;;;;;5070709;28;20083;-66
2023/01/28 05:29:34;;;;;;;13.88;8.05;;;2.80;99.90;;;;;;5070509;28;20051;-66
2023/01/28 05:32:00;;;;;;;13.40;8.18;;;2.80;99.90;;;;;;5069534;28;20397;-66
2023/01/28 05:34:26;;;;;;;11.07;8.27;;;2.80;99.90;;;;;;5070016;28;20055;-66
2023/01/28 05:36:51;;;;;;;12.35;8.02;;;2.80;99.90;;;;;;5070408;28;20612;-66
2023/01/28 05:39:17;;;;;;;12.35;8.02;;;2.90;99.90;;;;;;5070393;28;20900;-66
2023/01/28 05:41:42;;;;;;;13.30;8.50;;;2.90;99.90;;;;;;5070742;28;20044;-66
2023/01/28 05:44:11;;;;;;;13.40;8.00;;;2.90;99.90;;;;;;5069966;28;20115;-66
2023/01/28 05:46:37;;;;;;;13.02;8.90;;;2.80;99.90;;;;;;5069131;28;20037;-65
2023/01/28 05:49:02;;;;;;;15.07;8.10;;;2.80;99.90;;;;;;5070554;28;20067;-66
2023/01/28 05:51:28;;;;;;;13.18;8.95;;;2.80;99.90;;;;;;5070577;28;20048;-66
2023/01/28 05:53:53;;;;;;;11.60;7.43;;;2.70;99.90;;;;;;5069715;28;20036;-66
2023/01/28 05:56:19;;;;;;;16.33;9.38;;;2.70;99.90;;;;;;5072260;28;20040;-66
2023/01/28 05:58:44;;;;;;;13.52;8.70;;;2.80;99.90;;;;;;5073800;28;20040;-66
2023/01/28 06:01:10;;;;;;;14.25;8.30;;;2.80;99.90;;;;;;5074195;28;20044;-66
2023/01/28 06:03:35;;;;;;;12.35;8.43;;;2.80;99.90;;;;;;5074136;28;20040;-66
2023/01/28 06:06:01;;;;;;;14.57;8.10;;;2.80;99.90;;;;;;5073272;28;20033;-66
2023/01/28 06:08:27;;;;;;;12.57;8.40;;;2.70;99.90;;;;;;5072347;28;20554;-65
2023/01/28 06:10:52;;;;;;;13.05;8.40;;;2.80;99.90;;;;;;5073864;28;20119;-65
2023/01/28 06:13:18;;;;;;;14.10;8.82;;;2.80;99.90;;;;;;5074024;28;20052;-66
2023/01/28 06:15:43;;;;;;;13.48;7.90;;;2.70;99.90;;;;;;5073344;28;20059;-66
2023/01/28 06:18:09;;;;;;;11.75;7.60;;;2.80;99.90;;;;;;5073617;28;20040;-66
2023/01/28 06:20:34;;;;;;;11.45;7.45;;;2.70;99.90;;;;;;5073639;28;20036;-66
2023/01/28 06:23:00;;;;;;;11.18;7.55;;;2.80;99.90;;;;;;5073800;28;20043;-66
2023/01/28 06:25:26;;;;;;;13.73;8.52;;;2.80;99.90;;;;;;5072949;28;20033;-66
2023/01/28 06:27:52;;;;;;;11.60;8.02;;;2.80;99.90;;;;;;5073778;28;20129;-66
2023/01/28 06:30:17;;;;;;;11.38;7.82;;;2.80;99.90;;;;;;5072132;28;20098;-66
2023/01/28 06:32:43;;;;;;;11.57;7.13;;;2.80;99.90;;;;;;5073294;28;20052;-66
2023/01/28 06:35:09;;;;;;;10.00;7.70;;;2.90;99.90;;;;;;5072552;28;20036;-66
2023/01/28 06:37:35;;;;;;;12.05;7.53;;;2.90;99.90;;;;;;5073210;28;20129;-66
2023/01/28 06:40:02;;;;;;;11.00;7.45;;;2.90;99.90;;;;;;5073178;28;20041;-66
2023/01/28 06:42:27;;;;;;;11.32;7.20;;;2.90;99.90;;;;;;5073313;28;20048;-66
2023/01/28 06:44:56;;;;;;;9.73;6.88;;;2.90;99.90;;;;;;5071187;28;20516;-66
2023/01/28 06:47:22;;;;;;;11.45;7.20;;;2.90;99.90;;;;;;5073095;28;20033;-66
2023/01/28 06:49:47;;;;;;;10.52;6.97;;;2.90;99.90;;;;;;5073139;28;20040;-66
2023/01/28 06:52:13;;;;;;;9.63;6.68;;;2.90;99.90;;;;;;5055090;28;20501;-66
2023/01/28 06:54:38;;;;;;;10.48;7.18;;;2.90;99.90;;;;;;5070976;28;20426;-66
2023/01/28 06:57:04;;;;;;;9.60;6.43;;;2.90;99.90;;;;;;5072882;28;20489;-66
2023/01/28 06:59:29;;;;;;;10.00;7.95;;;2.80;99.90;;;;;;5073010;28;20062;-66
2023/01/28 07:01:55;;;;;;;11.63;6.88;;;2.80;99.90;;;;;;5072709;28;20070;-66
2023/01/28 07:04:21;;;;;;;8.68;6.45;;;2.70;99.90;;;;;;5071072;28;20036;-66
2023/01/28 07:06:46;;;;;;;9.05;5.95;;;2.70;99.90;;;;;;5071789;28;20032;-66
2023/01/28 07:09:12;;;;;;;8.23;6.68;;;2.80;99.90;;;;;;5072939;28;20512;-66
2023/01/28 07:11:37;;;;;;;9.00;6.38;;;2.80;99.90;;;;;;5072932;28;20048;-66
2023/01/28 07:14:03;;;;;;;9.40;6.50;;;2.80;99.90;;;;;;5070403;28;20127;-66
2023/01/28 07:16:29;;;;;;;7.38;5.95;;;2.80;99.90;;;;;;5072746;28;20040;-66
2023/01/28 07:18:54;;;;;;;8.43;6.63;;;2.70;99.90;;;;;;5054422;28;20041;-66
2023/01/28 07:21:20;;;;;;;8.40;6.45;;;2.60;99.90;;;;;;5065748;28;20036;-66
2023/01/28 07:23:46;;;;;;;11.73;7.13;;;2.60;99.90;;;;;;5060930;28;20041;-65
2023/01/28 07:26:11;;;;;;;9.75;6.57;;;2.60;99.90;;;;;;5061755;28;20133;-66
2023/01/28 07:28:37;;;;;;;13.52;7.25;;;2.70;99.90;;;;;;5062234;28;20120;-66
2023/01/28 07:31:03;;;;;;;9.45;7.28;;;2.70;99.90;;;;;;5065802;28;20098;-66
2023/01/28 07:33:28;;;;;;;10.15;7.82;;;2.80;99.90;;;;;;5070068;28;20047;-66
2023/01/28 07:35:54;;;;;;;11.32;7.63;;;2.80;99.90;;;;;;5070502;28;20581;-66
2023/01/28 07:38:20;;;;;;;11.70;8.30;;;2.80;99.90;;;;;;5068537;28;20076;-65
2023/01/28 07:40:45;;;;;;;10.63;7.53;;;2.80;99.90;;;;;;5066879;28;20539;-65
2023/01/28 07:43:11;;;;;;;12.98;7.45;;;2.80;99.90;;;;;;5068490;28;20040;-66
2023/01/28 07:45:37;;;;;;;10.68;7.85;;;2.80;99.90;;;;;;5053148;28;20125;-66
2023/01/28 07:48:05;;;;;;;9.18;6.22;;;2.90;99.90;;;;;;5071917;28;20044;-65
2023/01/28 07:50:33;;;;;;;10.48;7.65;;;2.80;99.90;;;;;;5070580;28;20119;-66
2023/01/28 07:53:02;;;;;;;10.77;8.15;;;2.80;99.90;;;;;;5070624;28;20056;-66
2023/01/28 07:55:29;;;;;;;12.80;8.52;;;2.80;99.90;;;;;;5071258;28;20052;-66
2023/01/28 07:57:56;;;;;;;10.30;7.85;;;2.90;99.90;;;;;;5071736;28;20033;-66
2023/01/28 08:00:23;;;;;;;11.10;7.07;;;2.90;99.90;;;;;;5071696;28;20123;-66
2023/01/28 08:02:54;;;;;;;12.48;7.85;;;2.90;99.90;;;;;;5071549;28;20082;-66
2023/01/28 08:05:20;;;;;;;13.63;8.00;;;2.90;99.90;;;;;;5070971;28;20385;-66
2023/01/28 08:07:47;;;;;;;11.20;8.00;;;2.80;99.90;;;;;;5071033;28;20067;-66
2023/01/28 08:10:16;;;;;;;11.73;7.63;;;2.80;99.90;;;;;;5070430;28;20048;-66
2023/01/28 08:12:59;;;;;;;13.88;8.73;;;2.80;99.90;;;;;;5070099;28;20040;-66
2023/01/28 08:15:26;;;;;;;12.57;8.73;;;2.80;99.90;;;;;;5070760;28;20043;-66
2023/01/28 08:17:58;;;;;;;13.63;8.50;;;2.80;99.90;;;;;;5069901;28;20076;-66
2023/01/28 08:20:25;;;;;;;11.65;7.75;;;2.80;99.90;;;;;;5071613;28;20044;-66
2023/01/28 08:22:51;;;;;;;11.82;8.13;;;2.80;99.90;;;;;;5071511;28;20111;-66
2023/01/28 08:25:16;;;;;;;10.50;7.63;;;2.80;99.90;;;;;;5070654;28;20165;-66
2023/01/28 08:27:42;;;;;;;12.30;8.02;;;2.80;99.90;;;;;;5069869;28;20033;-66
2023/01/28 08:30:09;;;;;;;12.75;8.45;;;2.70;99.90;;;;;;5071143;28;20512;-66
2023/01/28 08:32:35;;;;;;;12.93;7.97;;;2.80;99.90;;;;;;5071040;28;20048;-66
2023/01/28 08:35:01;;;;;;;11.40;8.52;;;2.80;99.90;;;;;;5070214;28;20045;-66
2023/01/28 08:37:26;;;;;;;13.35;8.40;;;2.80;99.90;;;;;;5071205;28;20049;-66
2023/01/28 08:39:52;;;;;;;14.30;9.15;;;2.80;99.90;;;;;;5069565;28;20052;-66
2023/01/28 08:42:18;;;;;;;16.23;9.40;;;2.80;99.90;;;;;;5071044;28;20405;-66
2023/01/28 08:44:44;;;;;;;14.80;9.00;;;2.80;99.90;;;;;;5070349;28;20448;-66
2023/01/28 08:47:09;;;;;;;13.13;8.90;;;2.80;99.90;;;;;;5070908;28;20113;-66
2023/01/28 08:49:35;;;;;;;17.70;11.35;;;2.70;99.90;;;;;;5071073;28;20509;-66
2023/01/28 08:52:00;;;;;;;16.33;9.85;;;2.80;99.90;;;;;;5071105;28;20036;-66
2023/01/28 08:54:26;;;;;;;12.60;9.32;;;2.80;99.90;;;;;;5070012;28;20086;-66
2023/01/28 08:56:51;;;;;;;13.60;9.82;;;2.80;99.90;;;;;;5071041;28;20044;-66
2023/01/28 08:59:17;;;;;;;14.48;10.02;;;2.80;99.90;;;;;;5070800;28;20152;-66
2023/01/28 09:01:43;;;;;;;12.25;9.20;;;2.80;99.90;;;;;;5071080;28;20124;-66
2023/01/28 09:04:09;;;;;;;12.00;8.35;;;2.90;99.90;;;;;;5070334;28;20033;-67
2023/01/28 09:06:34;;;;;;;14.90;9.00;;;2.90;99.90;;;;;;5068265;28;20064;-66
2023/01/28 09:09:00;;;;;;;14.95;9.82;;;3.00;99.90;;;;;;5070589;28;20071;-66
2023/01/28 09:11:27;;;;;;;11.63;8.25;;;3.00;99.90;;;;;;5070944;28;20051;-66
2023/01/28 09:13:52;;;;;;;15.27;9.30;;;3.00;99.90;;;;;;5070194;28;20554;-66
2023/01/28 09:16:18;;;;;;;14.07;9.35;;;3.00;99.90;;;;;;5070583;28;20119;-64
2023/01/28 09:18:44;;;;;;;14.70;9.45;;;3.00;99.90;;;;;;5070462;28;20076;-65
2023/01/28 09:21:10;;;;;;;19.15;9.82;;;3.00;99.90;;;;;;5070753;28;20043;-65
2023/01/28 09:23:36;;;;;;;14.98;8.68;;;3.10;99.90;;;;;;5053832;28;20334;-68
2023/01/28 09:26:03;;;;;;;12.90;8.55;;;3.10;99.90;;;;;;5048973;28;20548;-67
2023/01/28 09:28:29;;;;;;;12.73;8.07;;;3.20;99.90;;;;;;5065066;28;20400;-68
2023/01/28 09:31:09;;;;;;;12.82;8.73;;;3.20;99.90;;;;;;5068502;28;20123;-68
2023/01/28 09:33:36;;;;;;;12.13;8.13;;;3.20;99.90;;;;;;5069944;28;20071;-68
2023/01/28 09:36:04;;;;;;;12.40;7.70;;;3.20;99.90;;;;;;5052418;28;20052;-68
2023/01/28 09:38:30;;;;;;;14.70;7.93;;;3.10;99.90;;;;;;5052780;28;20041;-68
2023/01/28 09:40:56;;;;;;;10.63;6.88;;;3.10;99.90;;;;;;5052826;28;20037;-68
2023/01/28 09:43:43;;;;;;;14.43;7.93;;;3.20;99.90;;;;;;5052999;28;20105;-68
2023/01/28 09:46:13;;;;;;;10.85;7.00;;;3.20;99.90;;;;;;5053883;28;20052;-68
2023/01/28 09:48:50;;;;;;;13.00;7.20;;;3.30;99.90;;;;;;5069385;28;20045;-68
2023/01/28 09:51:39;;;;;;;11.45;7.50;;;3.30;99.90;;;;;;5069495;28;20037;-69
2023/01/28 09:54:16;;;;;;;12.23;7.28;;;3.30;99.90;;;;;;5035268;28;20045;-68
2023/01/28 09:56:46;;;;;;;11.38;7.68;;;3.40;99.90;;;;;;5069377;28;20121;-68
2023/01/28 09:59:16;;;;;;;12.38;7.85;;;3.40;99.90;;;;;;5069412;28;20036;-68
2023/01/28 10:01:57;;;;;;;28.00;13.50;;;3.40;99.90;;;;;;5054150;28;20045;-68
2023/01/28 10:05:00;;;;;;;24.20;12.23;;;3.40;99.90;;;;;;5052416;28;20058;-68
2023/01/28 10:07:41;;;;;;;15.93;8.57;;;3.40;99.90;;;;;;5054086;28;20037;-69
2023/01/28 10:10:39;;;;;;;14.10;9.00;;;3.40;99.90;;;;;;5053606;28;20523;-68
2023/01/28 10:13:38;;;;;;;12.38;8.20;;;3.40;99.90;;;;;;5046497;28;20135;-68
2023/01/28 10:16:26;;;;;;;11.90;7.93;;;3.30;99.90;;;;;;5052843;28;20083;-68
2023/01/28 10:19:05;;;;;;;14.90;8.07;;;3.30;99.90;;;;;;5069120;28;20098;-68
2023/01/28 10:21:40;;;;;;;12.10;7.50;;;3.40;99.90;;;;;;5069085;28;20489;-68
2023/01/28 10:24:27;;;;;;;15.10;8.13;;;3.40;99.90;;;;;;5068111;28;20079;-68
2023/01/28 10:26:55;;;;;;;13.93;8.07;;;3.40;99.90;;;;;;5052178;28;20116;-68
2023/01/28 10:29:28;;;;;;;12.57;7.97;;;3.40;99.90;;;;;;5068851;28;20045;-68
2023/01/28 10:32:25;;;;;;;11.32;7.95;;;3.40;99.90;;;;;;5068423;28;20041;-68
2023/01/28 10:34:52;;;;;;;11.60;7.85;;;3.40;99.90;;;;;;5046774;28;20053;-68
2023/01/28 10:37:18;;;;;;;14.45;8.73;;;3.50;99.90;;;;;;5053317;28;20045;-68
2023/01/28 10:39:44;;;;;;;15.95;8.60;;;3.50;99.90;;;;;;5053341;28;20379;-68
2023/01/28 10:42:24;;;;;;;13.73;8.32;;;3.50;99.90;;;;;;5067240;28;20493;-67
2023/01/28 10:44:50;;;;;;;13.30;7.63;;;3.60;99.90;;;;;;5068083;28;20040;-68
2023/01/28 10:47:26;;;;;;;13.27;7.75;;;3.60;99.90;;;;;;5068483;28;20095;-68
2023/01/28 10:49:56;;;;;;;15.13;7.72;;;3.60;99.90;;;;;;5053050;28;20048;-68
2023/01/28 10:52:21;;;;;;;23.27;7.35;;;3.60;99.90;;;;;;5068180;28;20049;-68
2023/01/28 10:54:57;;;;;;;13.30;8.45;;;3.70;99.90;;;;;;5052344;28;20044;-68
2023/01/28 10:57:23;;;;;;;19.08;8.00;;;3.70;99.90;;;;;;5052785;28;20087;-68
2023/01/28 10:59:49;;;;;;;11.88;7.53;;;3.60;99.90;;;;;;5068190;28;20044;-68
2023/01/28 11:02:34;;;;;;;15.73;7.72;;;3.60;99.90;;;;;;5052663;28;20059;-68
2023/01/28 11:05:21;;;;;;;15.18;8.88;;;3.60;99.90;;;;;;5067448;28;20052;-69
2023/01/28 11:07:48;;;;;;;10.75;8.00;;;3.60;99.90;;;;;;5051460;28;20116;-68
2023/01/28 11:10:36;;;;;;;14.32;8.35;;;3.70;99.90;;;;;;5068027;28;20505;-69
2023/01/28 11:13:04;;;;;;;12.40;8.13;;;3.60;99.90;;;;;;5068087;28;20386;-68
2023/01/28 11:15:31;;;;;;;12.45;8.10;;;3.60;99.90;;;;;;5050741;28;20474;-69
2023/01/28 11:18:05;;;;;;;19.33;8.85;;;3.70;99.90;;;;;;5067692;28;20045;-69
2023/01/28 11:20:37;;;;;;;12.43;7.88;;;4.20;99.90;;;;;;5051085;28;20413;-69
2023/01/28 11:23:03;;;;;;;;;;;4.20;99.90;;;;;;5051539;28;20496;-65
2023/01/28 11:25:34;;;;;;;11.30;6.80;;;4.30;99.90;;;;;;5051529;28;19924;-66
2023/01/28 11:28:06;;;;;;;11.57;7.05;;;4.30;99.90;;;;;;5052416;28;20037;-66
2023/01/28 11:30:36;;;;;;;9.48;6.53;;;4.40;99.90;;;;;;5053112;28;20072;-71
2023/01/28 11:33:30;;;;;;;11.82;6.78;;;4.40;99.90;;;;;;5060972;28;20039;-69
2023/01/28 11:36:29;;;;;;;11.90;7.25;;;4.40;99.90;;;;;;5062302;28;20037;-70
2023/01/28 11:38:59;;;;;;;11.68;6.78;;;4.50;99.90;;;;;;5041937;28;20045;-69
2023/01/28 11:41:36;;;;;;;9.85;5.50;;;4.60;99.90;;;;;;5053995;28;20489;-69
2023/01/28 11:44:28;;;;;;;15.77;8.05;;;4.70;99.90;;;;;;5051254;28;20413;-69
2023/01/28 11:47:12;;;;;;;10.77;7.10;;;4.60;99.90;;;;;;5046752;28;20059;-69
2023/01/28 11:50:15;;;;;;;13.40;7.60;;;4.60;99.90;;;;;;5050780;28;20050;-69
2023/01/28 11:52:50;;;;;;;11.63;7.15;;;4.70;99.90;;;;;;5054044;28;20041;-69
2023/01/28 11:55:36;;;;;;;11.27;7.28;;;4.80;99.90;;;;;;5063964;28;20736;-69
2023/01/28 11:58:26;;;;;;;10.63;7.28;;;4.80;99.90;;;;;;5070302;28;20041;-69
2023/01/28 12:01:05;;;;;;;11.88;7.28;;;4.90;99.90;;;;;;5060162;28;20033;-69
2023/01/28 12:03:36;;;;;;;15.20;8.05;;;4.90;99.90;;;;;;5062034;28;20056;-69
2023/01/28 12:06:35;;;;;;;12.07;7.13;;;5.00;99.90;;;;;;5059592;28;20113;-69
2023/01/28 12:09:21;;;;;;;9.75;6.72;;;5.00;99.90;;;;;;5058841;28;20028;-69
2023/01/28 12:12:26;;;;;;;9.38;6.63;;;5.10;99.90;;;;;;5048511;28;20110;-69
2023/01/28 12:15:01;;;;;;;11.07;5.78;;;5.20;99.90;;;;;;5043106;28;20049;-69
2023/01/28 12:17:51;;;;;;;7.72;5.32;;;5.20;99.90;;;;;;5049907;28;20052;-69
2023/01/28 12:20:37;;;;;;;9.25;6.13;;;5.20;99.90;;;;;;5050076;28;20119;-69
2023/01/28 12:23:25;;;;;;;13.40;6.22;;;5.20;99.90;;;;;;5050117;28;20052;-69
2023/01/28 12:26:12;;;;;;;10.43;5.57;;;5.20;99.90;;;;;;5049845;28;20041;-69
2023/01/28 12:29:00;;;;;;;7.05;5.57;;;5.20;99.90;;;;;;5066500;28;20234;-69
2023/01/28 12:31:57;;;;;;;7.85;5.85;;;5.20;99.90;;;;;;5069999;28;20076;-69
2023/01/28 12:34:33;;;;;;;9.98;6.28;;;5.30;99.90;;;;;;5070352;28;20036;-69
2023/01/28 12:37:35;;;;;;;11.27;6.88;;;5.20;99.90;;;;;;5070095;28;20032;-69
2023/01/28 12:40:12;;;;;;;9.13;5.68;;;5.30;99.90;;;;;;5070937;28;20086;-69
2023/01/28 12:42:46;;;;;;;10.68;6.28;;;5.30;99.90;;;;;;5071061;28;20072;-68
2023/01/28 12:45:15;;;;;;;10.77;6.03;;;5.30;99.90;;;;;;5070458;28;20043;-68
2023/01/28 12:47:48;;;;;;;10.23;6.10;;;5.30;99.90;;;;;;5070847;28;20037;-68
2023/01/28 12:50:36;;;;;;;11.43;6.55;;;5.30;99.90;;;;;;5070996;28;20493;-68
2023/01/28 12:53:20;;;;;;;10.70;6.38;;;5.30;99.90;;;;;;5069533;28;20036;-68
2023/01/28 12:55:57;;;;;;;10.45;6.20;;;5.30;99.90;;;;;;5070614;28;20493;-68
2023/01/28 12:58:47;;;;;;;9.75;5.80;;;5.30;99.90;;;;;;5069474;28;20040;-69
2023/01/28 13:01:18;;;;;;;10.70;6.13;;;5.30;99.90;;;;;;5069625;28;20048;-67
2023/01/28 13:03:50;;;;;;;11.48;5.95;;;5.20;99.90;;;;;;5068780;28;20041;-68
2023/01/28 13:06:30;;;;;;;9.57;6.60;;;5.30;99.90;;;;;;5068912;28;20115;-69
2023/01/28 13:09:01;;;;;;;10.63;6.68;;;5.20;99.90;;;;;;5069425;28;20569;-69
2023/01/28 13:11:33;;;;;;;13.68;6.75;;;5.20;99.90;;;;;;5070873;28;20086;-69
2023/01/28 13:14:00;;;;;;;11.43;6.75;;;5.10;99.90;;;;;;5068409;28;20144;-67
2023/01/28 13:16:26;;;;;;;14.10;7.72;;;5.30;99.90;;;;;;5069307;28;20094;-66
2023/01/28 13:18:51;;;;;;;10.80;5.97;;;5.10;99.90;;;;;;5070410;28;20064;-67
2023/01/28 13:21:23;;;;;;;11.02;5.72;;;5.00;99.90;;;;;;5070633;28;20566;-66
2023/01/28 13:23:51;;;;;;;10.20;6.15;;;5.00;99.90;;;;;;5069866;28;20093;-66
2023/01/28 13:26:19;;;;;;;9.60;5.70;;;4.90;99.90;;;;;;5070750;28;20037;-66
2023/01/28 13:28:51;;;;;;;9.75;5.93;;;4.90;99.90;;;;;;5070279;28;20082;-66
2023/01/28 13:31:18;;;;;;;9.73;6.18;;;4.90;99.90;;;;;;5070556;28;20044;-66
2023/01/28 13:33:53;;;;;;;32.15;12.07;;;4.90;99.90;;;;;;5070106;28;20048;-67
2023/01/28 13:36:32;;;;;;;55.83;19.63;;;4.90;99.90;;;;;;5070607;28;20098;-66
2023/01/28 13:39:12;;;;;;;14.82;8.93;;;4.90;99.90;;;;;;5070678;28;20052;-67
2023/01/28 13:41:46;;;;;;;12.48;7.43;;;4.90;99.90;;;;;;5070761;28;20523;-66
2023/01/28 13:44:19;;;;;;;14.45;8.15;;;4.90;99.90;;;;;;5069651;28;20529;-66
2023/01/28 13:46:45;;;;;;;11.48;7.22;;;5.00;99.90;;;;;;5070298;28;20037;-66